createdAt,value
2019-05-10T00:00:34.234Z,4.00
2019-05-10T00:03:21.878Z,3.70
2019-05-10T00:06:09.209Z,4.73
2019-05-10T00:08:46.938Z,6.30
2019-05-10T00:11:23.059Z,3.77
2019-05-10T00:14:10.577Z,3.37
2019-05-10T00:16:40.352Z,3.70
2019-05-10T00:19:10.123Z,4.20
2019-05-10T00:21:39.809Z,3.90
2019-05-10T00:24:10.771Z,4.37
2019-05-10T00:26:40.579Z,4.27
2019-05-10T00:29:10.259Z,4.00
2019-05-10T00:31:40.091Z,4.17
2019-05-10T00:34:09.762Z,4.20
2019-05-10T00:36:39.443Z,4.57
2019-05-10T00:39:09.261Z,6.53
2019-05-10T00:41:38.934Z,4.07
2019-05-10T00:44:08.689Z,3.80
2019-05-10T00:46:38.356Z,4.07
2019-05-10T00:49:08.036Z,3.63
2019-05-10T00:51:37.703Z,3.23
2019-05-10T00:54:07.840Z,3.23
2019-05-10T00:56:37.518Z,7.00
2019-05-10T00:59:08.748Z,3.83
2019-05-10T01:01:39.883Z,3.07
2019-05-10T01:04:09.796Z,3.73
2019-05-10T01:06:39.458Z,3.77
2019-05-10T01:09:09.142Z,3.50
2019-05-10T01:11:39.394Z,3.53
2019-05-10T01:14:09.200Z,3.70
2019-05-10T01:16:38.887Z,4.13
2019-05-10T01:19:08.635Z,3.30
2019-05-10T01:21:38.312Z,3.57
2019-05-10T01:24:08.035Z,3.90
2019-05-10T01:26:37.668Z,3.30
2019-05-10T01:29:09.651Z,3.23
2019-05-10T01:31:39.484Z,4.47
2019-05-10T01:34:09.149Z,4.10
2019-05-10T01:36:39.932Z,3.77
2019-05-10T01:39:09.668Z,3.73
2019-05-10T01:41:39.352Z,4.07
2019-05-10T01:44:09.026Z,4.80
2019-05-10T01:46:38.738Z,4.60
2019-05-10T01:49:08.388Z,4.50
2019-05-10T01:51:39.380Z,5.07
2019-05-10T01:54:09.062Z,4.70
2019-05-10T01:56:38.742Z,5.03
2019-05-10T01:59:09.931Z,5.43
2019-05-10T02:01:39.597Z,5.40
2019-05-10T02:04:09.554Z,5.33
2019-05-10T02:06:39.245Z,5.83
2019-05-10T02:09:09.636Z,5.00
2019-05-10T02:11:39.371Z,5.17
2019-05-10T02:14:09.068Z,6.00
2019-05-10T02:16:38.734Z,5.93
2019-05-10T02:19:08.457Z,6.03
2019-05-10T02:21:38.150Z,5.50
2019-05-10T02:24:07.900Z,8.13
2019-05-10T02:26:37.584Z,7.20
2019-05-10T02:29:07.248Z,5.53
2019-05-10T02:31:36.929Z,5.60
2019-05-10T02:34:06.668Z,5.47
2019-05-10T02:36:36.348Z,5.63
2019-05-10T02:39:08.939Z,5.23
2019-05-10T02:41:38.621Z,7.03
2019-05-10T02:44:08.291Z,5.90
2019-05-10T02:46:37.958Z,6.33
2019-05-10T02:49:07.713Z,5.60
2019-05-10T02:51:37.476Z,5.30
2019-05-10T02:54:07.158Z,5.53
2019-05-10T02:56:38.756Z,6.70
2019-05-10T02:59:11.121Z,5.90
2019-05-10T03:01:45.617Z,6.97
2019-05-10T03:04:15.516Z,6.77
2019-05-10T03:06:45.711Z,6.80
2019-05-10T03:09:17.747Z,6.90
2019-05-10T03:11:50.417Z,9.03
2019-05-10T03:14:20.474Z,6.23
2019-05-10T03:16:52.000Z,7.00
2019-05-10T03:19:22.521Z,6.70
2019-05-10T03:22:09.105Z,6.47
2019-05-10T03:24:38.764Z,7.57
2019-05-10T03:27:08.447Z,6.70
2019-05-10T03:29:38.112Z,6.93
2019-05-10T03:32:07.942Z,6.90
2019-05-10T03:34:39.038Z,9.13
2019-05-10T03:37:08.959Z,7.13
2019-05-10T03:39:38.613Z,7.00
2019-05-10T03:42:08.286Z,7.03
2019-05-10T03:44:39.544Z,7.37
2019-05-10T03:47:09.151Z,7.20
2019-05-10T03:49:38.802Z,6.90
2019-05-10T03:52:08.475Z,7.33
2019-05-10T03:54:38.134Z,7.10
2019-05-10T03:57:14.195Z,11.97
2019-05-10T03:59:39.261Z,6.53
2019-05-10T04:02:08.910Z,6.93
2019-05-10T04:04:38.591Z,7.13
2019-05-10T04:07:08.243Z,7.13
2019-05-10T04:09:37.913Z,7.27
2019-05-10T04:12:07.645Z,6.73
2019-05-10T04:14:38.364Z,6.40
2019-05-10T04:17:08.026Z,6.73
2019-05-10T04:19:37.679Z,6.63
2019-05-10T04:22:07.340Z,6.60
2019-05-10T04:24:37.095Z,6.50
2019-05-10T04:27:06.811Z,7.30
2019-05-10T04:29:36.475Z,6.70
2019-05-10T04:32:06.210Z,8.80
2019-05-10T04:34:35.861Z,6.60
2019-05-10T04:37:05.530Z,6.80
2019-05-10T04:39:35.190Z,6.30
2019-05-10T04:42:04.934Z,6.20
2019-05-10T04:44:34.585Z,8.87
2019-05-10T04:47:04.358Z,6.87
2019-05-10T04:49:34.010Z,6.10
2019-05-10T04:52:03.722Z,6.37
2019-05-10T04:54:33.451Z,6.07
2019-05-10T04:57:03.200Z,19.27
2019-05-10T04:59:32.866Z,6.70
2019-05-10T05:02:02.683Z,6.20
2019-05-10T05:04:32.380Z,5.70
2019-05-10T05:07:02.032Z,6.37
2019-05-10T05:09:31.716Z,6.50
2019-05-10T05:12:01.422Z,5.63
2019-05-10T05:14:32.666Z,5.20
2019-05-10T05:17:02.330Z,5.70
2019-05-10T05:19:31.993Z,6.20
2019-05-10T05:22:01.663Z,6.97
2019-05-10T05:24:31.329Z,5.80
2019-05-10T05:27:02.063Z,5.93
2019-05-10T05:29:31.712Z,5.90
2019-05-10T05:32:03.560Z,6.23
2019-05-10T05:34:32.768Z,5.03
2019-05-10T05:37:02.436Z,4.97
2019-05-10T05:39:32.168Z,7.63
2019-05-10T05:42:01.830Z,5.53
2019-05-10T05:44:31.495Z,5.30
2019-05-10T05:47:04.521Z,5.50
2019-05-10T05:49:32.654Z,5.87
2019-05-10T05:52:04.693Z,5.50
2019-05-10T05:54:34.434Z,5.47
2019-05-10T05:57:04.148Z,4.97
2019-05-10T05:59:33.832Z,5.30
2019-05-10T06:02:07.391Z,6.57
2019-05-10T06:04:34.872Z,5.80
2019-05-10T06:07:04.589Z,5.63
2019-05-10T06:09:37.974Z,7.50
2019-05-10T06:12:12.127Z,6.30
2019-05-10T06:14:43.067Z,4.83
2019-05-10T06:17:09.946Z,5.03
2019-05-10T06:19:39.626Z,7.17
2019-05-10T06:22:09.296Z,5.67
2019-05-10T06:24:38.953Z,5.23
2019-05-10T06:27:08.714Z,5.47
2019-05-10T06:29:38.377Z,5.20
2019-05-10T06:32:08.051Z,5.23
2019-05-10T06:34:38.838Z,8.77
2019-05-10T06:37:09.228Z,5.07
2019-05-10T06:39:38.891Z,12.37
2019-05-10T06:42:09.578Z,5.80
2019-05-10T06:44:39.239Z,5.07
2019-05-10T06:47:11.319Z,4.13
2019-05-10T06:49:41.053Z,4.53
2019-05-10T06:52:11.718Z,4.90
2019-05-10T06:54:41.379Z,5.43
2019-05-10T06:57:17.050Z,5.30
2019-05-10T06:59:43.021Z,4.70
2019-05-10T07:02:12.672Z,4.03
2019-05-10T07:04:42.423Z,4.53
2019-05-10T07:07:22.372Z,6.80
2019-05-10T07:10:04.229Z,5.63
2019-05-10T07:12:17.773Z,4.73
2019-05-10T07:14:46.824Z,7.80
2019-05-10T07:17:16.595Z,4.70
2019-05-10T07:19:53.911Z,4.27
2019-05-10T07:22:21.830Z,4.70
2019-05-10T07:24:49.057Z,5.90
2019-05-10T07:27:18.737Z,4.13
2019-05-10T07:29:48.394Z,5.43
2019-05-10T07:32:22.082Z,4.80
2019-05-10T07:34:58.310Z,4.87
2019-05-10T07:37:21.242Z,5.90
2019-05-10T07:39:50.910Z,5.70
2019-05-10T07:42:20.584Z,6.87
2019-05-10T07:44:50.235Z,6.43
2019-05-10T07:47:24.036Z,7.63
2019-05-10T07:49:51.273Z,4.40
2019-05-10T07:52:20.944Z,5.10
2019-05-10T07:54:50.596Z,6.67
2019-05-10T07:57:24.624Z,6.30
2019-05-10T07:59:51.762Z,4.30
2019-05-10T08:02:21.427Z,5.63
2019-05-10T08:04:53.518Z,3.70
2019-05-10T08:07:22.464Z,3.90
2019-05-10T08:09:52.141Z,4.60
2019-05-10T08:12:21.799Z,3.43
2019-05-10T08:14:53.541Z,4.63
2019-05-10T08:17:22.844Z,3.13
2019-05-10T08:19:52.499Z,3.43
2019-05-10T08:22:23.672Z,5.23
2019-05-10T08:24:56.369Z,4.40
2019-05-10T08:27:25.142Z,4.37
2019-05-10T08:30:16.801Z,3.70
2019-05-10T08:32:29.943Z,4.10
2019-05-10T08:34:57.888Z,4.20
2019-05-10T08:37:33.413Z,3.90
2019-05-10T08:39:58.999Z,3.53
2019-05-10T08:42:40.763Z,3.33
2019-05-10T08:45:05.441Z,5.23
2019-05-10T08:47:32.338Z,5.63
2019-05-10T08:50:19.847Z,2.50
2019-05-10T08:52:34.114Z,3.03
2019-05-10T08:55:05.067Z,3.33
2019-05-10T08:57:43.383Z,3.50
2019-05-10T09:00:09.320Z,2.47
2019-05-10T09:02:38.949Z,9.37
2019-05-10T09:05:09.024Z,10.93
2019-05-10T09:07:39.125Z,3.20
2019-05-10T09:10:12.774Z,2.70
2019-05-10T09:12:51.141Z,3.00
2019-05-10T09:15:14.480Z,7.77
2019-05-10T09:17:44.215Z,4.53
2019-05-10T09:20:21.037Z,3.57
2019-05-10T09:22:45.650Z,2.30
2019-05-10T09:25:20.212Z,3.00
2019-05-10T09:27:47.198Z,3.07
2019-05-10T09:30:32.447Z,3.83
2019-05-10T09:33:08.452Z,2.20
2019-05-10T09:35:38.919Z,2.50
2019-05-10T09:38:05.605Z,2.73
2019-05-10T09:40:42.650Z,1.83
2019-05-10T09:43:09.692Z,3.37
2019-05-10T09:45:38.025Z,2.03
2019-05-10T09:48:07.679Z,1.83
2019-05-10T09:50:44.419Z,2.20
2019-05-10T09:53:10.437Z,2.17
2019-05-10T09:55:40.280Z,3.03
2019-05-10T09:58:09.990Z,2.13
2019-05-10T10:00:39.651Z,2.30
2019-05-10T10:03:12.549Z,1.50
2019-05-10T10:05:40.690Z,3.63
2019-05-10T10:08:11.036Z,5.93
2019-05-10T10:10:41.105Z,3.67
2019-05-10T10:13:13.695Z,1.57
2019-05-10T10:15:42.153Z,2.80
2019-05-10T10:18:12.631Z,2.73
2019-05-10T10:20:45.179Z,1.70
2019-05-10T10:23:14.674Z,2.30
2019-05-10T10:25:44.437Z,2.27
2019-05-10T10:28:19.052Z,4.67
2019-05-10T10:30:52.714Z,2.47
2019-05-10T10:33:24.853Z,1.53
2019-05-10T10:35:49.827Z,1.60
2019-05-10T10:38:19.495Z,1.80
2019-05-10T10:40:49.160Z,3.37
2019-05-10T10:43:18.805Z,2.40
2019-05-10T10:45:48.475Z,3.40
2019-05-10T10:48:18.197Z,1.80
2019-05-10T10:50:53.362Z,5.37
2019-05-10T10:53:19.249Z,3.10
2019-05-10T10:55:54.418Z,4.33
2019-05-10T10:58:20.292Z,1.73
2019-05-10T11:00:49.964Z,1.60
2019-05-10T11:03:23.865Z,1.60
2019-05-10T11:05:51.118Z,2.93
2019-05-10T11:08:20.777Z,2.40
2019-05-10T11:10:50.791Z,2.70
2019-05-10T11:13:38.827Z,3.40
2019-05-10T11:15:51.891Z,2.10
2019-05-10T11:18:21.798Z,2.10
2019-05-10T11:20:53.875Z,4.70
2019-05-10T11:23:32.830Z,2.60
2019-05-10T11:25:56.574Z,2.43
2019-05-10T11:28:31.999Z,2.17
2019-05-10T11:30:57.604Z,1.60
2019-05-10T11:33:30.850Z,2.13
2019-05-10T11:36:03.990Z,2.20
2019-05-10T11:38:31.894Z,2.93
2019-05-10T11:41:02.084Z,3.27
2019-05-10T11:43:32.996Z,1.50
2019-05-10T11:46:02.660Z,1.60
2019-05-10T11:48:37.001Z,1.40
2019-05-10T11:51:05.667Z,1.90
2019-05-10T11:53:35.063Z,2.63
2019-05-10T11:56:07.921Z,1.70
2019-05-10T11:58:37.743Z,2.47
2019-05-10T12:01:14.760Z,1.40
2019-05-10T12:03:42.477Z,2.27
2019-05-10T12:06:12.219Z,1.80
2019-05-10T12:08:42.169Z,3.53
2019-05-10T12:11:27.714Z,1.57
2019-05-10T12:13:43.181Z,2.03
2019-05-10T12:16:16.880Z,1.60
2019-05-10T12:19:00.851Z,1.60
2019-05-10T12:21:15.598Z,6.00
2019-05-10T12:23:50.838Z,1.90
2019-05-10T12:28:51.089Z,2.60
2019-05-10T12:31:21.123Z,1.53
2019-05-10T12:33:52.017Z,1.83
2019-05-10T12:36:27.129Z,3.20
2019-05-10T12:38:53.015Z,3.93
2019-05-10T12:41:23.406Z,2.50
2019-05-10T12:44:02.835Z,1.60
2019-05-10T12:46:24.551Z,1.37
2019-05-10T12:48:54.203Z,2.80
2019-05-10T12:51:23.851Z,1.47
2019-05-10T12:53:53.517Z,2.20
2019-05-10T12:56:23.172Z,3.67
2019-05-10T12:58:57.676Z,2.07
2019-05-10T13:01:25.676Z,2.00
2019-05-10T13:03:55.657Z,1.43
2019-05-10T13:06:25.319Z,2.37
2019-05-10T13:08:54.981Z,2.77
2019-05-10T13:11:25.907Z,2.70
2019-05-10T13:14:01.025Z,1.97
2019-05-10T13:16:27.404Z,1.93
2019-05-10T13:18:57.056Z,3.10
2019-05-10T13:21:30.115Z,8.87
2019-05-10T13:23:58.090Z,1.17
2019-05-10T13:26:27.756Z,3.72
2019-05-10T13:29:02.257Z,1.25
2019-05-10T13:31:29.433Z,1.85
2019-05-10T13:33:59.663Z,2.80
2019-05-10T13:36:30.597Z,1.62
2019-05-10T13:39:01.895Z,1.40
2019-05-10T13:41:32.134Z,8.38
2019-05-10T13:44:04.897Z,10.72
2019-05-10T13:46:33.772Z,8.68
2019-05-10T13:49:03.433Z,1.53
2019-05-10T13:51:33.083Z,1.17
2019-05-10T13:54:05.150Z,1.30
2019-05-10T13:56:34.125Z,2.10
2019-05-10T13:59:15.779Z,3.63
2019-05-10T14:01:35.229Z,1.03
2019-05-10T14:04:04.888Z,3.00
2019-05-10T14:06:35.125Z,4.70
2019-05-10T14:09:08.068Z,2.22
2019-05-10T14:11:40.417Z,1.67
2019-05-10T14:14:14.466Z,1.10
2019-05-10T14:16:41.059Z,2.10
2019-05-10T14:19:16.000Z,2.50
2019-05-10T14:21:42.117Z,1.23
2019-05-10T14:24:15.084Z,2.20
2019-05-10T14:26:43.146Z,1.10
2019-05-10T14:29:12.827Z,1.60
2019-05-10T14:31:42.510Z,2.80
2019-05-10T14:34:15.293Z,2.73
2019-05-10T14:36:43.680Z,1.47
2019-05-10T14:39:13.329Z,2.10
2019-05-10T14:41:45.298Z,3.40
2019-05-10T14:44:14.376Z,2.47
2019-05-10T14:46:44.062Z,1.30
2019-05-10T14:49:13.720Z,2.00
2019-05-10T14:51:57.663Z,0.97
2019-05-10T14:54:14.748Z,3.10
2019-05-10T14:56:44.411Z,1.10
2019-05-10T14:59:14.070Z,1.40
2019-05-10T15:01:45.617Z,1.57
2019-05-10T15:04:20.272Z,1.17
2019-05-10T15:06:46.808Z,2.87
2019-05-10T15:09:21.689Z,3.27
2019-05-10T15:11:47.862Z,1.50
2019-05-10T15:14:19.173Z,1.53
2019-05-10T15:16:50.345Z,2.07
2019-05-10T15:19:20.130Z,1.47
2019-05-10T15:21:50.894Z,2.77
2019-05-10T15:24:20.545Z,3.23
2019-05-10T15:26:50.212Z,1.67
2019-05-10T15:29:22.281Z,1.60
2019-05-10T15:31:51.253Z,1.60
2019-05-10T15:34:20.932Z,1.40
2019-05-10T15:36:52.294Z,3.43
2019-05-10T15:39:23.024Z,4.77
2019-05-10T15:41:58.538Z,1.50
2019-05-10T15:44:31.363Z,1.47
2019-05-10T15:46:56.127Z,1.23
2019-05-10T15:49:25.764Z,2.40
2019-05-10T15:52:15.202Z,1.87
2019-05-10T15:54:26.921Z,2.30
2019-05-10T15:56:56.550Z,1.70
2019-05-10T15:59:26.192Z,1.37
2019-05-10T16:01:55.954Z,1.23
2019-05-10T16:04:25.608Z,1.37
2019-05-10T16:06:55.257Z,2.47
2019-05-10T16:09:24.929Z,1.40
2019-05-10T16:11:55.998Z,4.20
2019-05-10T16:14:26.035Z,1.03
2019-05-10T16:16:57.221Z,1.30
2019-05-10T16:19:26.953Z,1.10
2019-05-10T16:21:58.747Z,4.00
2019-05-10T16:24:29.969Z,2.67
2019-05-10T16:27:01.517Z,1.97
2019-05-10T16:29:33.855Z,1.10
2019-05-10T16:32:02.458Z,2.67
2019-05-10T16:34:33.887Z,1.60
2019-05-10T16:37:03.514Z,1.27
2019-05-10T16:39:33.166Z,2.70
2019-05-10T16:42:02.857Z,1.57
2019-05-10T16:44:32.661Z,2.20
2019-05-10T16:47:02.331Z,2.30
2019-05-10T16:49:32.081Z,2.30
2019-05-10T16:52:03.029Z,1.43
2019-05-10T16:54:32.670Z,1.57
2019-05-10T16:57:02.329Z,1.50
2019-05-10T16:59:35.020Z,4.50
2019-05-10T17:02:06.085Z,1.80
2019-05-10T17:04:37.367Z,0.90
2019-05-10T17:07:07.390Z,1.53
2019-05-10T17:09:37.058Z,1.07
2019-05-10T17:12:06.895Z,1.17
2019-05-10T17:14:36.564Z,2.07
2019-05-10T17:17:06.238Z,1.30
2019-05-10T17:19:36.131Z,1.37
2019-05-10T17:22:05.989Z,3.17
2019-05-10T17:24:35.652Z,1.30
2019-05-10T17:27:05.475Z,1.50
2019-05-10T17:29:35.138Z,2.40
2019-05-10T17:32:04.797Z,5.87
2019-05-10T17:34:34.474Z,1.53
2019-05-10T17:37:04.542Z,2.13
2019-05-10T17:39:34.450Z,2.40
2019-05-10T17:42:05.008Z,2.00
2019-05-10T17:44:36.019Z,1.53
2019-05-10T17:47:05.672Z,2.03
2019-05-10T17:49:35.324Z,1.80
2019-05-10T17:52:05.056Z,2.23
2019-05-10T17:54:39.310Z,1.80
2019-05-10T17:57:10.832Z,2.13
2019-05-10T17:59:37.488Z,2.20
2019-05-10T18:02:07.200Z,1.93
2019-05-10T18:04:36.828Z,3.40
2019-05-10T18:07:06.485Z,3.10
2019-05-10T18:09:36.144Z,7.53
2019-05-10T18:12:05.805Z,4.93
2019-05-10T18:14:35.459Z,3.43
2019-05-10T18:17:07.216Z,4.23
2019-05-10T18:19:36.571Z,3.67
2019-05-10T18:22:06.638Z,10.87
2019-05-10T18:24:41.482Z,5.20
2019-05-10T18:27:07.791Z,4.83
2019-05-10T18:29:37.464Z,3.60
2019-05-10T18:32:10.882Z,3.70
2019-05-10T18:34:38.761Z,4.53
2019-05-10T18:37:08.435Z,5.33
2019-05-10T18:39:38.112Z,5.53
2019-05-10T18:42:07.864Z,5.10
2019-05-10T18:44:37.518Z,6.07
2019-05-10T18:47:07.179Z,4.33
2019-05-10T18:49:36.871Z,6.87
2019-05-10T18:52:06.748Z,4.10
2019-05-10T18:54:38.457Z,4.17
2019-05-10T18:57:12.194Z,4.10
2019-05-10T18:59:45.415Z,3.40
2019-05-10T19:02:17.989Z,4.03
2019-05-10T19:04:45.755Z,3.57
2019-05-10T19:07:16.328Z,4.03
2019-05-10T19:09:46.008Z,3.83
2019-05-10T19:12:18.732Z,3.87
2019-05-10T19:14:47.069Z,5.27
2019-05-10T19:17:18.374Z,3.67
2019-05-10T19:19:48.033Z,4.43
2019-05-10T19:22:17.961Z,3.70
2019-05-10T19:24:47.636Z,3.10
2019-05-10T19:27:17.300Z,5.20
2019-05-10T19:29:47.935Z,5.27
2019-05-10T19:32:18.790Z,3.23
2019-05-10T19:34:57.124Z,3.47
2019-05-10T19:37:29.645Z,6.23
2019-05-10T19:39:51.978Z,5.17
2019-05-10T19:42:21.635Z,3.60
2019-05-10T19:44:51.309Z,3.73
2019-05-10T19:47:20.963Z,3.03
2019-05-10T19:49:53.354Z,3.33
2019-05-10T19:52:26.200Z,3.73
2019-05-10T19:54:53.435Z,4.53
2019-05-10T19:57:23.091Z,3.10
2019-05-10T19:59:52.742Z,7.57
2019-05-10T20:02:22.458Z,4.07
2019-05-10T20:04:52.863Z,3.40
2019-05-10T20:07:22.529Z,3.73
2019-05-10T20:09:52.197Z,3.50
2019-05-10T20:12:21.861Z,4.43
2019-05-10T20:14:51.606Z,2.80
2019-05-10T20:17:21.741Z,3.50
2019-05-10T20:19:51.763Z,4.53
2019-05-10T20:22:21.502Z,3.50
2019-05-10T20:24:51.253Z,4.27
2019-05-10T20:27:22.312Z,3.13
2019-05-10T20:29:51.980Z,2.90
2019-05-10T20:32:21.637Z,3.27
2019-05-10T20:34:51.314Z,5.03
2019-05-10T20:37:21.138Z,6.47
2019-05-10T20:39:50.796Z,4.43
2019-05-10T20:42:20.503Z,4.37
2019-05-10T20:45:04.804Z,3.67
2019-05-10T20:47:21.547Z,3.37
2019-05-10T20:49:51.203Z,3.27
2019-05-10T20:52:20.911Z,3.13
2019-05-10T20:54:51.901Z,4.03
2019-05-10T20:57:21.569Z,3.27
2019-05-10T20:59:51.235Z,2.73
2019-05-10T21:02:22.435Z,4.13
2019-05-10T21:04:52.174Z,3.43
2019-05-10T21:07:23.340Z,2.83
2019-05-10T21:09:53.018Z,4.43
2019-05-10T21:12:22.723Z,2.70
2019-05-10T21:14:52.395Z,2.70
2019-05-10T21:17:22.052Z,3.03
2019-05-10T21:19:51.714Z,2.93
2019-05-10T21:22:21.485Z,4.10
2019-05-10T21:24:51.142Z,2.80
2019-05-10T21:27:20.800Z,2.43
2019-05-10T21:29:51.979Z,3.87
2019-05-10T21:32:21.677Z,4.67
2019-05-10T21:34:51.334Z,3.40
2019-05-10T21:37:20.982Z,3.47
2019-05-10T21:39:50.655Z,6.63
2019-05-10T21:42:20.307Z,2.70
2019-05-10T21:44:49.963Z,3.23
2019-05-10T21:47:19.625Z,2.83
2019-05-10T21:49:49.292Z,3.27
2019-05-10T21:52:18.950Z,3.00
2019-05-10T21:54:48.626Z,3.07
2019-05-10T21:57:18.642Z,3.00
2019-05-10T21:59:48.303Z,3.77
2019-05-10T22:02:17.972Z,5.43
2019-05-10T22:04:48.222Z,3.23
2019-05-10T22:07:18.086Z,3.33
2019-05-10T22:09:47.750Z,3.90
2019-05-10T22:12:17.411Z,3.93
2019-05-10T22:14:47.073Z,2.93
2019-05-10T22:17:16.762Z,3.23
2019-05-10T22:19:46.405Z,3.03
2019-05-10T22:22:16.071Z,4.70
2019-05-10T22:24:45.735Z,3.20
2019-05-10T22:27:15.469Z,2.90
2019-05-10T22:29:45.118Z,3.10
2019-05-10T22:32:16.313Z,3.87
2019-05-10T22:34:46.021Z,3.20
2019-05-10T22:37:15.627Z,3.33
2019-05-10T22:39:45.276Z,2.70
2019-05-10T22:42:14.971Z,2.57
2019-05-10T22:44:44.624Z,2.90
2019-05-10T22:47:14.369Z,4.07
2019-05-10T22:49:44.036Z,3.20
2019-05-10T22:52:13.699Z,3.83
2019-05-10T22:54:43.376Z,3.30
2019-05-10T22:57:13.024Z,3.53
2019-05-10T22:59:42.719Z,3.00
2019-05-10T23:02:12.380Z,3.10
2019-05-10T23:04:42.036Z,4.70
2019-05-10T23:07:11.706Z,3.30
2019-05-10T23:09:41.356Z,3.33
2019-05-10T23:12:11.024Z,3.43
2019-05-10T23:14:40.706Z,3.60
2019-05-10T23:17:10.451Z,3.23
2019-05-10T23:19:41.041Z,3.70
2019-05-10T23:22:10.708Z,3.30
2019-05-10T23:24:40.375Z,5.30
2019-05-10T23:27:10.227Z,3.03
2019-05-10T23:29:39.865Z,3.50
2019-05-10T23:32:09.547Z,3.57
2019-05-10T23:34:39.305Z,3.63
2019-05-10T23:37:08.996Z,5.70
2019-05-10T23:39:41.180Z,3.50
2019-05-10T23:42:10.168Z,3.80
2019-05-10T23:44:39.837Z,2.97
2019-05-10T23:47:11.006Z,3.47
2019-05-10T23:49:40.678Z,3.17
2019-05-10T23:52:10.421Z,3.87
2019-05-10T23:54:40.151Z,3.10
2019-05-10T23:57:09.819Z,3.80
2019-05-10T23:59:39.489Z,3.73
